createdAt,value
2019-04-22T00:01:50.338Z,13.40
2019-04-22T00:04:35.389Z,13.40
2019-04-22T00:07:09.787Z,13.50
2019-04-22T00:09:45.612Z,13.50
2019-04-22T00:12:22.219Z,13.40
2019-04-22T00:14:40.653Z,13.40
2019-04-22T00:17:26.305Z,13.40
2019-04-22T00:19:52.385Z,13.40
2019-04-22T00:22:22.076Z,13.40
2019-04-22T00:24:52.910Z,13.30
2019-04-22T00:27:28.179Z,13.30
2019-04-22T00:32:32.276Z,13.30
2019-04-22T00:34:59.245Z,13.30
2019-04-22T00:37:35.755Z,13.20
2019-04-22T00:40:07.378Z,13.10
2019-04-22T00:42:42.769Z,13.10
2019-04-22T00:45:11.743Z,13.10
2019-04-22T00:47:55.115Z,13.10
2019-04-22T00:50:18.945Z,13.20
2019-04-22T00:52:40.404Z,13.20
2019-04-22T00:55:23.125Z,13.20
2019-04-22T00:57:46.230Z,13.20
2019-04-22T01:00:17.640Z,13.20
2019-04-22T01:02:49.070Z,12.90
2019-04-22T01:05:25.594Z,12.50
2019-04-22T01:07:49.468Z,12.50
2019-04-22T01:10:23.227Z,12.60
2019-04-22T01:12:49.983Z,12.60
2019-04-22T01:15:26.134Z,12.60
2019-04-22T01:17:52.979Z,12.50
2019-04-22T01:20:45.953Z,12.60
2019-04-22T01:22:52.199Z,12.60
2019-04-22T01:25:23.675Z,12.60
2019-04-22T01:27:50.293Z,12.70
2019-04-22T01:30:18.595Z,12.70
2019-04-22T01:32:43.191Z,12.60
2019-04-22T01:35:24.450Z,12.60
2019-04-22T01:37:54.639Z,12.60
2019-04-22T01:40:38.915Z,12.50
2019-04-22T01:43:07.009Z,12.40
2019-04-22T01:45:39.435Z,12.50
2019-04-22T01:48:12.824Z,12.50
2019-04-22T01:50:37.248Z,12.50
2019-04-22T01:53:13.311Z,12.40
2019-04-22T01:55:45.383Z,12.40
2019-04-22T01:58:10.866Z,12.40
2019-04-22T02:00:51.189Z,12.50
2019-04-22T02:03:17.623Z,12.50
2019-04-22T02:05:43.922Z,12.40
2019-04-22T02:08:26.816Z,12.50
2019-04-22T02:13:25.152Z,12.30
2019-04-22T02:15:53.913Z,12.10
2019-04-22T02:18:24.400Z,12.20
2019-04-22T02:20:50.331Z,12.10
2019-04-22T02:26:02.465Z,12.10
2019-04-22T02:28:36.705Z,12.10
2019-04-22T02:31:20.804Z,12.00
2019-04-22T02:41:26.204Z,12.10
2019-04-22T02:43:51.952Z,12.00
2019-04-22T02:51:16.463Z,11.80
2019-04-22T02:54:15.172Z,11.60
2019-04-22T03:04:03.338Z,11.70
2019-04-22T03:06:30.424Z,11.80
2019-04-22T03:13:55.115Z,11.70
2019-04-22T03:16:33.258Z,11.70
2019-04-22T03:19:16.964Z,11.50
2019-04-22T03:24:08.557Z,11.50
2019-04-22T03:28:57.102Z,11.50
2019-04-22T03:39:40.122Z,11.30
2019-04-22T03:47:21.270Z,11.30
2019-04-22T03:49:37.196Z,11.20
2019-04-22T03:52:10.670Z,11.20
2019-04-22T03:54:39.437Z,11.30
2019-04-22T03:59:54.063Z,11.30
2019-04-22T04:09:40.593Z,11.10
2019-04-22T04:12:25.801Z,11.10
2019-04-22T04:17:09.448Z,11.00
2019-04-22T04:22:22.191Z,11.20
2019-04-22T04:24:53.574Z,11.10
2019-04-22T04:27:34.694Z,11.30
2019-04-22T04:30:02.749Z,11.40
2019-04-22T04:35:07.280Z,11.30
2019-04-22T04:39:53.481Z,11.30
2019-04-22T04:47:36.557Z,11.40
2019-04-22T04:50:09.262Z,11.40
2019-04-22T04:55:03.897Z,11.50
2019-04-22T05:00:22.031Z,11.40
2019-04-22T05:02:35.169Z,11.50
2019-04-22T05:10:03.890Z,11.50
2019-04-22T05:12:52.961Z,11.40
2019-04-22T05:15:04.237Z,11.30
2019-04-22T05:20:05.114Z,11.40
2019-04-22T05:22:28.609Z,11.30
2019-04-22T05:25:00.032Z,11.40
2019-04-22T05:27:34.955Z,11.30
2019-04-22T05:32:37.308Z,11.50
2019-04-22T05:34:59.677Z,11.50
2019-04-22T05:37:35.474Z,11.60
2019-04-22T05:40:14.060Z,11.60
2019-04-22T05:42:28.454Z,11.50
2019-04-22T05:45:04.548Z,11.50
2019-04-22T05:47:35.280Z,11.60
2019-04-22T05:50:03.609Z,11.50
2019-04-22T05:52:36.072Z,11.50
2019-04-22T05:55:12.580Z,11.50
2019-04-22T05:57:37.244Z,11.50
2019-04-22T06:00:14.365Z,11.60
2019-04-22T06:02:56.832Z,11.70
2019-04-22T06:05:11.728Z,11.80
2019-04-22T06:07:42.735Z,11.70
2019-04-22T06:10:20.482Z,11.70
2019-04-22T06:12:41.654Z,11.90
2019-04-22T06:15:19.494Z,11.90
2019-04-22T06:17:54.793Z,11.80
2019-04-22T06:20:15.914Z,11.70
2019-04-22T06:22:57.155Z,11.70
2019-04-22T06:25:30.151Z,11.70
2019-04-22T06:27:54.321Z,11.80
2019-04-22T06:30:28.752Z,12.00
2019-04-22T06:32:53.796Z,12.00
2019-04-22T06:35:32.495Z,12.00
2019-04-22T06:40:29.680Z,11.80
2019-04-22T06:45:30.584Z,11.90
2019-04-22T06:48:08.066Z,12.00
2019-04-22T06:55:35.635Z,12.30
2019-04-22T06:58:04.568Z,12.20
2019-04-22T07:00:38.645Z,12.10
2019-04-22T07:03:30.111Z,12.20
2019-04-22T07:05:32.591Z,12.30
2019-04-22T07:08:25.642Z,12.30
2019-04-22T07:10:45.091Z,12.40
2019-04-22T07:13:12.514Z,12.40
2019-04-22T07:20:48.057Z,12.40
2019-04-22T07:23:15.446Z,12.40
2019-04-22T07:30:44.687Z,12.60
2019-04-22T07:33:19.651Z,12.60
2019-04-22T07:35:57.498Z,12.60
2019-04-22T07:38:23.725Z,12.60
2019-04-22T07:41:00.559Z,12.70
2019-04-22T07:43:32.167Z,12.70
2019-04-22T07:45:49.179Z,12.70
2019-04-22T07:51:05.566Z,12.90
2019-04-22T07:53:21.860Z,12.90
2019-04-22T07:56:01.691Z,13.00
2019-04-22T08:01:07.203Z,13.00
2019-04-22T08:03:38.064Z,13.10
2019-04-22T08:08:28.758Z,13.10
2019-04-22T08:11:08.607Z,13.10
2019-04-22T08:13:38.848Z,13.20
2019-04-22T08:16:02.567Z,13.30
2019-04-22T08:18:39.557Z,13.30
2019-04-22T08:21:10.530Z,13.30
2019-04-22T08:23:45.700Z,13.30
2019-04-22T08:26:05.353Z,13.30
2019-04-22T08:28:45.842Z,13.30
2019-04-22T08:31:18.553Z,13.30
2019-04-22T08:33:39.971Z,13.30
2019-04-22T08:36:19.823Z,13.30
2019-04-22T08:39:02.496Z,13.30
2019-04-22T08:43:57.827Z,13.40
2019-04-22T08:46:30.158Z,13.40
2019-04-22T08:48:57.305Z,13.50
2019-04-22T08:51:25.073Z,13.60
2019-04-22T08:53:59.767Z,13.60
2019-04-22T08:59:04.721Z,13.70
2019-04-22T09:01:30.060Z,13.70
2019-04-22T09:09:06.507Z,13.80
2019-04-22T09:14:11.378Z,13.80
2019-04-22T09:16:37.400Z,13.90
2019-04-22T09:19:10.885Z,13.90
2019-04-22T09:21:37.854Z,13.90
2019-04-22T09:24:14.890Z,13.90
2019-04-22T09:26:45.040Z,14.00
2019-04-22T09:29:14.690Z,14.00
2019-04-22T09:31:47.505Z,14.10
2019-04-22T09:34:18.573Z,14.20
2019-04-22T09:37:06.215Z,14.10
2019-04-22T09:39:17.403Z,14.20
2019-04-22T09:41:48.309Z,14.20
2019-04-22T09:44:15.298Z,14.30
2019-04-22T09:46:47.024Z,14.20
2019-04-22T09:49:19.614Z,14.20
2019-04-22T09:51:53.627Z,14.30
2019-04-22T09:54:21.745Z,14.40
2019-04-22T09:56:49.331Z,14.40
2019-04-22T09:59:21.105Z,14.40
2019-04-22T10:02:05.653Z,14.40
2019-04-22T10:04:20.248Z,14.50
2019-04-22T10:06:47.136Z,14.50
2019-04-22T10:09:47.347Z,14.50
2019-04-22T10:11:58.705Z,14.60
2019-04-22T10:14:28.403Z,14.70
2019-04-22T10:16:53.808Z,14.70
2019-04-22T10:19:29.964Z,14.80
2019-04-22T10:22:04.531Z,14.80
2019-04-22T10:24:30.017Z,14.90
2019-04-22T10:26:56.365Z,14.80
2019-04-22T10:29:38.270Z,14.90
2019-04-22T10:32:05.410Z,15.00
2019-04-22T10:34:16.734Z,15.00
2019-04-22T10:36:39.792Z,15.10
2019-04-22T10:39:10.568Z,15.10
2019-04-22T10:41:40.843Z,15.00
2019-04-22T10:44:10.991Z,15.10
2019-04-22T10:46:40.513Z,15.20
2019-04-22T10:49:12.531Z,15.20
2019-04-22T10:51:42.385Z,15.20
2019-04-22T10:54:11.806Z,15.20
2019-04-22T10:56:41.175Z,15.20
2019-04-22T10:59:10.903Z,15.20
2019-04-22T11:01:40.340Z,15.20
2019-04-22T11:04:11.102Z,15.20
2019-04-22T11:06:48.660Z,15.30
2019-04-22T11:09:12.450Z,15.40
2019-04-22T11:11:50.165Z,15.40
2019-04-22T11:14:12.895Z,15.50
2019-04-22T11:16:43.499Z,15.50
2019-04-22T11:19:13.938Z,15.50
2019-04-22T11:21:44.615Z,15.40
2019-04-22T11:24:14.854Z,15.50
2019-04-22T11:26:45.171Z,15.60
2019-04-22T11:29:14.523Z,15.60
2019-04-22T11:31:44.350Z,15.60
2019-04-22T11:34:15.130Z,15.60
2019-04-22T11:36:45.051Z,15.60
2019-04-22T11:39:16.806Z,15.80
2019-04-22T11:41:46.413Z,15.80
2019-04-22T11:44:17.052Z,15.80
2019-04-22T11:46:47.479Z,15.60
2019-04-22T11:49:18.137Z,15.60
2019-04-22T11:51:47.876Z,15.60
2019-04-22T11:54:17.151Z,15.70
2019-04-22T11:56:47.312Z,15.70
2019-04-22T11:59:16.712Z,15.80
2019-04-22T12:01:46.818Z,15.90
2019-04-22T12:04:16.107Z,16.00
2019-04-22T12:06:46.147Z,16.00
2019-04-22T12:09:15.685Z,15.90
2019-04-22T12:11:44.920Z,15.90
2019-04-22T12:14:18.066Z,16.00
2019-04-22T12:16:47.765Z,16.00
2019-04-22T12:19:16.866Z,16.00
2019-04-22T12:21:46.826Z,16.00
2019-04-22T12:24:17.182Z,16.00
2019-04-22T12:26:46.528Z,16.00
2019-04-22T12:29:16.929Z,16.10
2019-04-22T12:31:47.272Z,16.10
2019-04-22T12:34:17.313Z,16.20
2019-04-22T12:36:46.872Z,16.20
2019-04-22T12:39:16.044Z,16.30
2019-04-22T12:41:46.436Z,16.40
2019-04-22T12:44:15.708Z,16.40
2019-04-22T12:46:46.020Z,16.50
2019-04-22T12:49:16.322Z,16.50
2019-04-22T12:51:46.936Z,16.40
2019-04-22T12:54:17.119Z,16.40
2019-04-22T12:56:47.796Z,16.40
2019-04-22T12:59:17.444Z,16.40
2019-04-22T13:01:46.887Z,16.50
2019-04-22T13:04:19.451Z,16.50
2019-04-22T13:06:48.015Z,16.50
2019-04-22T13:09:19.059Z,16.50
2019-04-22T13:11:48.967Z,16.50
2019-04-22T13:14:19.186Z,16.60
2019-04-22T13:16:49.247Z,16.70
2019-04-22T13:19:20.604Z,16.80
2019-04-22T13:21:49.280Z,16.90
2019-04-22T13:24:20.006Z,16.90
2019-04-22T13:26:50.575Z,16.90
2019-04-22T13:29:21.207Z,16.90
2019-04-22T13:31:50.834Z,16.90
2019-04-22T13:34:29.506Z,16.90
2019-04-22T13:36:50.906Z,16.90
2019-04-22T13:39:20.868Z,17.00
2019-04-22T13:41:54.582Z,17.10
2019-04-22T13:44:21.043Z,17.10
2019-04-22T13:47:08.634Z,17.00
2019-04-22T13:49:51.547Z,17.00
2019-04-22T13:52:35.670Z,17.10
2019-04-22T13:54:59.667Z,17.20
2019-04-22T13:57:10.532Z,17.20
2019-04-22T13:59:32.267Z,17.20
2019-04-22T14:02:12.736Z,17.10
2019-04-22T14:04:42.993Z,17.20
2019-04-22T14:07:12.657Z,17.20
2019-04-22T14:09:42.289Z,17.10
2019-04-22T14:12:13.675Z,17.10
2019-04-22T14:14:44.495Z,17.10
2019-04-22T14:17:13.481Z,17.10
2019-04-22T14:19:42.569Z,17.10
2019-04-22T14:22:11.800Z,17.20
2019-04-22T14:24:40.902Z,17.20
2019-04-22T14:27:20.753Z,17.20
2019-04-22T14:29:41.958Z,17.20
2019-04-22T14:32:17.825Z,17.20
2019-04-22T14:34:42.786Z,17.20
2019-04-22T14:37:12.065Z,17.10
2019-04-22T14:39:41.979Z,17.00
2019-04-22T14:42:28.498Z,17.00
2019-04-22T14:45:19.036Z,17.10
2019-04-22T14:47:45.128Z,17.00
2019-04-22T14:50:07.654Z,17.00
2019-04-22T14:52:40.451Z,17.10
2019-04-22T14:54:54.337Z,17.10
2019-04-22T14:57:17.042Z,17.10
2019-04-22T14:59:46.270Z,17.00
2019-04-22T15:02:16.110Z,16.90
2019-04-22T15:04:45.909Z,16.90
2019-04-22T15:07:15.176Z,16.90
2019-04-22T15:09:46.027Z,17.00
2019-04-22T15:12:25.680Z,17.00
2019-04-22T15:14:47.935Z,17.00
2019-04-22T15:17:38.885Z,17.00
2019-04-22T15:20:27.992Z,17.00
2019-04-22T15:22:57.073Z,16.90
2019-04-22T15:25:26.298Z,16.90
2019-04-22T15:27:55.680Z,16.90
2019-04-22T15:30:25.526Z,16.90
2019-04-22T15:32:54.755Z,17.00
2019-04-22T15:35:25.270Z,17.10
2019-04-22T15:37:55.214Z,17.20
2019-04-22T15:40:24.859Z,17.10
2019-04-22T15:42:55.010Z,17.10
2019-04-22T15:45:25.952Z,17.10
2019-04-22T15:47:55.926Z,17.10
2019-04-22T15:50:26.550Z,17.00
2019-04-22T15:52:58.897Z,16.90
2019-04-22T15:55:27.180Z,16.90
2019-04-22T15:57:57.618Z,16.90
2019-04-22T16:00:40.702Z,17.00
2019-04-22T16:02:57.682Z,17.00
2019-04-22T16:05:28.027Z,17.10
2019-04-22T16:07:57.348Z,17.10
2019-04-22T16:10:26.433Z,17.10
2019-04-22T16:13:05.472Z,17.20
2019-04-22T16:15:26.617Z,17.30
2019-04-22T16:17:55.832Z,17.40
2019-04-22T16:20:25.990Z,17.30
2019-04-22T16:23:23.990Z,17.30
2019-04-22T16:26:15.424Z,17.40
2019-04-22T16:28:45.124Z,17.30
2019-04-22T16:31:15.398Z,17.30
2019-04-22T16:33:47.697Z,17.40
2019-04-22T16:36:16.722Z,17.30
2019-04-22T16:38:46.865Z,17.40
2019-04-22T16:41:17.035Z,17.40
2019-04-22T16:43:46.712Z,17.40
2019-04-22T16:46:16.059Z,17.50
2019-04-22T16:48:45.504Z,17.50
2019-04-22T16:51:16.031Z,17.60
2019-04-22T16:53:45.381Z,17.70
2019-04-22T16:56:15.188Z,17.80
2019-04-22T16:58:44.657Z,17.70
2019-04-22T17:01:36.790Z,17.70
2019-04-22T17:04:23.087Z,17.70
2019-04-22T17:06:53.323Z,17.80
2019-04-22T17:09:23.761Z,17.70
2019-04-22T17:11:53.986Z,17.70
2019-04-22T17:14:32.370Z,17.70
2019-04-22T17:16:54.748Z,17.60
2019-04-22T17:19:23.993Z,17.80
2019-04-22T17:21:53.484Z,17.90
2019-04-22T17:24:23.653Z,17.80
2019-04-22T17:26:54.728Z,17.70
2019-04-22T17:29:26.216Z,17.70
2019-04-22T17:32:02.993Z,17.50
2019-04-22T17:34:29.528Z,17.40
2019-04-22T17:36:59.366Z,17.20
2019-04-22T17:39:41.131Z,17.10
2019-04-22T17:42:22.467Z,17.00
2019-04-22T17:45:17.631Z,16.90
2019-04-22T17:48:03.407Z,16.80
2019-04-22T17:50:40.003Z,16.70
2019-04-22T17:53:14.076Z,16.70
2019-04-22T17:55:50.605Z,16.70
2019-04-22T17:58:20.632Z,16.60
2019-04-22T18:00:44.482Z,16.60
2019-04-22T18:03:11.835Z,16.60
2019-04-22T18:05:35.656Z,16.50
2019-04-22T18:08:17.702Z,16.50
2019-04-22T18:10:56.074Z,16.50
2019-04-22T18:13:28.306Z,16.30
2019-04-22T18:16:01.035Z,16.30
2019-04-22T18:18:27.923Z,16.30
2019-04-22T18:20:49.952Z,16.20
2019-04-22T18:23:12.788Z,16.20
2019-04-22T18:26:03.418Z,16.10
2019-04-22T18:28:30.312Z,16.10
2019-04-22T18:30:57.043Z,16.10
2019-04-22T18:33:29.541Z,16.00
2019-04-22T18:36:01.115Z,16.00
2019-04-22T18:38:39.630Z,16.00
2019-04-22T18:41:01.625Z,15.90
2019-04-22T18:43:35.273Z,15.80
2019-04-22T18:48:33.251Z,15.90
2019-04-22T18:51:20.813Z,15.90
2019-04-22T18:54:11.878Z,15.80
2019-04-22T18:56:46.638Z,15.70
2019-04-22T18:59:08.402Z,15.70
2019-04-22T19:01:29.989Z,15.80
2019-04-22T19:04:08.979Z,15.80
2019-04-22T19:06:50.488Z,15.60
2019-04-22T19:09:27.629Z,15.60
2019-04-22T19:12:10.334Z,15.60
2019-04-22T19:14:24.849Z,15.60
2019-04-22T19:17:07.374Z,15.60
2019-04-22T19:21:56.068Z,15.60
2019-04-22T19:24:27.901Z,15.50
2019-04-22T19:26:59.206Z,15.50
2019-04-22T19:29:31.792Z,15.50
2019-04-22T19:32:01.558Z,15.40
2019-04-22T19:34:32.163Z,15.40
2019-04-22T19:37:02.181Z,15.40
2019-04-22T19:39:27.285Z,15.30
2019-04-22T19:42:15.010Z,15.30
2019-04-22T19:44:37.825Z,15.30
2019-04-22T19:47:19.624Z,15.30
2019-04-22T19:49:48.106Z,15.30
2019-04-22T19:54:41.847Z,15.30
2019-04-22T19:57:08.155Z,15.30
2019-04-22T19:59:48.165Z,15.20
2019-04-22T20:02:42.675Z,15.20
2019-04-22T20:05:37.184Z,15.20
2019-04-22T20:08:05.925Z,15.20
2019-04-22T20:10:34.888Z,15.10
2019-04-22T20:13:07.640Z,15.10
2019-04-22T20:15:29.232Z,15.00
2019-04-22T20:20:42.140Z,14.90
2019-04-22T20:23:06.686Z,14.90
2019-04-22T20:25:34.903Z,14.80
2019-04-22T20:28:14.804Z,14.80
2019-04-22T20:30:42.064Z,14.80
2019-04-22T20:33:12.001Z,14.90
2019-04-22T20:35:43.901Z,14.80
2019-04-22T20:38:16.303Z,14.60
2019-04-22T20:40:42.618Z,14.70
2019-04-22T20:43:23.524Z,14.70
2019-04-22T20:45:45.832Z,14.70
2019-04-22T20:48:07.978Z,14.70
2019-04-22T20:50:51.887Z,14.70
2019-04-22T20:53:26.359Z,14.70
2019-04-22T20:55:56.680Z,14.60
2019-04-22T20:58:22.393Z,14.60
2019-04-22T21:00:46.531Z,14.50
2019-04-22T21:03:13.292Z,14.60
2019-04-22T21:05:43.051Z,14.60
2019-04-22T21:08:24.165Z,14.50
2019-04-22T21:10:49.409Z,14.50
2019-04-22T21:13:20.616Z,14.50
2019-04-22T21:16:04.089Z,14.60
2019-04-22T21:18:24.717Z,14.60
2019-04-22T21:21:02.592Z,14.50
2019-04-22T21:23:23.123Z,14.60
2019-04-22T21:26:05.291Z,14.60
2019-04-22T21:28:34.189Z,14.60
2019-04-22T21:30:59.687Z,14.50
2019-04-22T21:33:27.027Z,14.40
2019-04-22T21:38:37.496Z,14.30
2019-04-22T21:41:05.998Z,14.30
2019-04-22T21:43:35.832Z,14.30
2019-04-22T21:46:12.999Z,14.40
2019-04-22T21:48:42.686Z,14.40
2019-04-22T21:51:12.309Z,14.40
2019-04-22T21:53:44.929Z,14.40
2019-04-22T21:56:29.092Z,14.30
2019-04-22T21:59:11.005Z,14.30
2019-04-22T22:04:16.193Z,14.30
2019-04-22T22:06:39.966Z,14.30
2019-04-22T22:09:22.499Z,14.30
2019-04-22T22:11:49.482Z,14.30
2019-04-22T22:14:19.561Z,14.20
2019-04-22T22:16:43.531Z,14.20
2019-04-22T22:19:22.494Z,14.30
2019-04-22T22:21:58.300Z,14.30
2019-04-22T22:24:27.195Z,14.20
2019-04-22T22:26:55.371Z,14.20
2019-04-22T22:29:36.785Z,14.30
2019-04-22T22:32:02.690Z,14.30
2019-04-22T22:34:43.614Z,14.30
2019-04-22T22:36:53.117Z,14.30
2019-04-22T22:39:24.835Z,14.30
2019-04-22T22:41:41.939Z,14.20
2019-04-22T22:44:18.301Z,14.20
2019-04-22T22:47:01.856Z,14.30
2019-04-22T22:49:36.133Z,14.30
2019-04-22T22:52:31.050Z,14.40
2019-04-22T22:54:34.125Z,14.40
2019-04-22T22:57:11.970Z,14.30
2019-04-22T22:59:38.381Z,14.30
2019-04-22T23:02:10.232Z,14.20
2019-04-22T23:04:39.608Z,14.20
2019-04-22T23:07:17.313Z,14.20
2019-04-22T23:09:43.777Z,14.30
2019-04-22T23:12:29.457Z,14.10
2019-04-22T23:14:48.635Z,14.10
2019-04-22T23:17:01.198Z,14.10
2019-04-22T23:19:24.004Z,14.00
2019-04-22T23:21:58.801Z,14.10
2019-04-22T23:24:55.615Z,13.90
2019-04-22T23:27:36.084Z,14.00
2019-04-22T23:30:12.803Z,14.00
2019-04-22T23:32:43.601Z,14.00
2019-04-22T23:35:48.885Z,14.00
2019-04-22T23:38:22.620Z,14.00
2019-04-22T23:40:54.095Z,14.00
2019-04-22T23:43:32.627Z,14.00
2019-04-22T23:45:57.933Z,13.90
2019-04-22T23:48:25.971Z,13.90
2019-04-22T23:51:03.379Z,13.80
2019-04-22T23:56:10.577Z,13.80
